地図

経路データ

SID SEASON NUMBER BASIN SUBBASIN NAME ISO_TIME NATURE LAT LON WMO_WIND WMO_PRES WMO_AGENCY TRACK_TYPE DIST2LAND LANDFALL IFLAG USA_AGENCY USA_ATCF_ID USA_LAT USA_LON USA_RECORD USA_STATUS USA_WIND USA_PRES USA_SSHS USA_R34_NE USA_R34_SE USA_R34_SW USA_R34_NW USA_R50_NE USA_R50_SE USA_R50_SW USA_R50_NW USA_R64_NE USA_R64_SE USA_R64_SW USA_R64_NW USA_POCI USA_ROCI USA_RMW USA_EYE TOKYO_LAT TOKYO_LON TOKYO_GRADE TOKYO_WIND TOKYO_PRES TOKYO_R50_DIR TOKYO_R50_LONG TOKYO_R50_SHORT TOKYO_R30_DIR TOKYO_R30_LONG TOKYO_R30_SHORT TOKYO_LAND CMA_LAT CMA_LON CMA_CAT CMA_WIND CMA_PRES HKO_LAT HKO_LON HKO_CAT HKO_WIND HKO_PRES NEWDELHI_LAT NEWDELHI_LON NEWDELHI_GRADE NEWDELHI_WIND NEWDELHI_PRES NEWDELHI_CI NEWDELHI_DP NEWDELHI_POCI REUNION_LAT REUNION_LON REUNION_TYPE REUNION_WIND REUNION_PRES REUNION_TNUM REUNION_CI REUNION_RMW REUNION_R34_NE REUNION_R34_SE REUNION_R34_SW REUNION_R34_NW REUNION_R50_NE REUNION_R50_SE REUNION_R50_SW REUNION_R50_NW REUNION_R64_NE REUNION_R64_SE REUNION_R64_SW REUNION_R64_NW BOM_LAT BOM_LON BOM_TYPE BOM_WIND BOM_PRES BOM_TNUM BOM_CI BOM_RMW BOM_R34_NE BOM_R34_SE BOM_R34_SW BOM_R34_NW BOM_R50_NE BOM_R50_SE BOM_R50_SW BOM_R50_NW BOM_R64_NE BOM_R64_SE BOM_R64_SW BOM_R64_NW BOM_ROCI BOM_POCI BOM_EYE BOM_POS_METHOD BOM_PRES_METHOD NADI_LAT NADI_LON NADI_CAT NADI_WIND NADI_PRES WELLINGTON_LAT WELLINGTON_LON WELLINGTON_WIND WELLINGTON_PRES DS824_LAT DS824_LON DS824_STAGE DS824_WIND DS824_PRES TD9636_LAT TD9636_LON TD9636_STAGE TD9636_WIND TD9636_PRES TD9635_LAT TD9635_LON TD9635_WIND TD9635_PRES TD9635_ROCI NEUMANN_LAT NEUMANN_LON NEUMANN_CLASS NEUMANN_WIND NEUMANN_PRES MLC_LAT MLC_LON MLC_CLASS MLC_WIND MLC_PRES USA_GUST BOM_GUST BOM_GUST_PER REUNION_GUST REUNION_GUST_PER USA_SEAHGT USA_SEARAD_NE USA_SEARAD_SE USA_SEARAD_SW USA_SEARAD_NW STORM_SPEED STORM_DIR
1955083S11042 1955 23 SI MM NOT_NAMED 1955-03-24 06:00:00 TS -11.3000 42.0000 main 156 156 O________OO___ jtwc_sh SH231955 -11.3000 42.0000 -1 -11.3000 42.0000 TC 25 -11.3000 42.0000 7 7 153
1955083S11042 1955 23 SI MM NOT_NAMED 1955-03-24 09:00:00 TS -11.5981 42.1556 main 179 175 P________PP___ SH231955 -11.6025 42.1774 -1 -11.6025 42.1774 TC 25 -11.5891 42.1122 7 7 156
1955083S11042 1955 23 SI MM NOT_NAMED 1955-03-24 12:00:00 TS -11.8942 42.2699 main 185 185 O________OP___ jtwc_sh SH231955 -11.9000 42.3000 -1 -11.9000 42.3000 TC 25 -11.8826 42.2096 7 6 165
1955083S11042 1955 23 SI MM NOT_NAMED 1955-03-24 15:00:00 TS -12.1899 42.3124 main 186 184 P________PP___ SH231955 -12.1925 42.3300 -1 -12.1925 42.3300 TC 25 -12.1847 42.2772 7 6 177
1955083S11042 1955 23 SI MM NOT_NAMED 1955-03-24 18:00:00 TS -12.5000 42.3000 main 184 184 O________OO___ jtwc_sh SH231955 -12.5000 42.3000 -1 -12.5000 42.3000 TC 25 -12.5000 42.3000 1 7 184
1955083S11042 1955 23 SI MM NOT_NAMED 1955-03-24 21:00:00 TS -12.8433 42.2661 main 184 174 P________PP___ SH231955 -12.8500 42.2650 -1 -12.8500 42.2650 TC 25 -12.8300 42.2684 1 7 188
1955083S11042 1955 23 SI MM NOT_NAMED 1955-03-25 00:00:00 TS -13.1883 42.1984 main 174 162 O________OP___ jtwc_sh SH231955 -13.2000 42.2000 -1 -13.2000 42.2000 TC 25 -13.1650 42.1953 1 7 194
1955083S11042 1955 23 SI MM NOT_NAMED 1955-03-25 03:00:00 TS -13.5075 42.0999 main 162 151 P________PP___ SH231955 -13.5150 42.1000 -1 -13.5150 42.1000 TC 25 -13.4925 42.0996 1 6 198
1955083S11042 1955 23 SI MM NOT_NAMED 1955-03-25 06:00:00 TS -13.8000 42.0000 main 151 131 O________OO___ jtwc_sh SH231955 -13.8000 42.0000 -1 -13.8000 42.0000 TC 25 -13.8000 42.0000 1 6 196
1955083S11042 1955 23 SI MM NOT_NAMED 1955-03-25 09:00:00 TS -14.0595 41.9349 main 126 120 P________PP___ SH231955 -14.0575 41.9499 -1 -14.0575 41.9499 TC 25 -14.0634 41.9048 1 5 194
1955083S11042 1955 23 SI MM NOT_NAMED 1955-03-25 12:00:00 TS -14.3025 41.8709 main 120 107 O________OP___ jtwc_sh SH231955 -14.3000 41.9000 -1 -14.3000 41.9000 TC 25 -14.3075 41.8127 1 5 197
1955083S11042 1955 23 SI MM NOT_NAMED 1955-03-25 15:00:00 TS -14.5443 41.7748 main 107 96 P________PP___ SH231955 -14.5425 41.7926 -1 -14.5425 41.7926 TC 25 -14.5478 41.7392 1 5 198
1955083S11042 1955 23 SI MM NOT_NAMED 1955-03-25 18:00:00 TS -14.8000 41.7000 main 96 96 O________OO___ jtwc_sh SH231955 -14.8000 41.7000 -1 -14.8000 41.7000 TC 25 -14.8000 41.7000 1 6 189
1955083S11042 1955 23 SI MM NOT_NAMED 1955-03-25 21:00:00 TS -15.0997 41.6819 main 97 97 P________PP___ SH231955 -15.0925 41.6700 -1 -15.0925 41.6700 TC 25 -15.1140 41.7058 1 6 178
1955083S11042 1955 23 SI MM NOT_NAMED 1955-03-26 00:00:00 TS -15.4125 41.7158 main 106 106 O________OP___ jtwc_sh SH231955 -15.4000 41.7000 -1 -15.4000 41.7000 TC 25 -15.4375 41.7473 1 6 170
1955083S11042 1955 23 SI MM NOT_NAMED 1955-03-26 03:00:00 TS -15.7291 41.7950 main 132 132 P________PP___ SH231955 -15.7225 41.7849 -1 -15.7225 41.7849 TC 25 -15.7422 41.8152 1 6 163
1955083S11042 1955 23 SI MM NOT_NAMED 1955-03-26 06:00:00 TS -16.0000 41.9000 main 154 154 O________OO___ jtwc_sh SH231955 -16.0000 41.9000 -1 -16.0000 41.9000 TC 25 -16.0000 41.9000 1 5 157
1955083S11042 1955 23 SI MM NOT_NAMED 1955-03-26 09:00:00 TS -16.1771 41.9926 main 174 174 P________PP___ SH231955 -16.1800 42.0000 -1 -16.1800 42.0000 TC 25 -16.1712 41.9776 1 4 149
1955083S11042 1955 23 SI MM NOT_NAMED 1955-03-26 12:00:00 TS -16.2983 42.0901 main 189 189 O________OP___ jtwc_sh SH231955 -16.3000 42.1000 -1 -16.3000 42.1000 TC 25 -16.2950 42.0702 1 3 140
1955083S11042 1955 23 SI MM NOT_NAMED 1955-03-26 15:00:00 TS -16.3987 42.1876 main 204 203 P________PP___ SH231955 -16.4000 42.1925 -1 -16.4000 42.1925 TC 25 -16.3962 42.1776 1 3 135
1955083S11042 1955 23 SI MM NOT_NAMED 1955-03-26 18:00:00 TS -16.5000 42.3000 main 203 188 O________OO___ jtwc_sh SH231955 -16.5000 42.3000 -1 -16.5000 42.3000 TC 25 -16.5000 42.3000 1 3 136
1955083S11042 1955 23 SI MM NOT_NAMED 1955-03-26 21:00:00 TS -16.6440 42.4388 main 188 158 P________PP___ SH231955 -16.6425 42.4425 -1 -16.6425 42.4425 TC 25 -16.6469 42.4316 1 4 137
1955083S11042 1955 23 SI MM NOT_NAMED 1955-03-27 00:00:00 TS -16.8000 42.5925 main 158 144 O________OP___ jtwc_sh SH231955 -16.8000 42.6000 -1 -16.8000 42.6000 TC 25 -16.8000 42.5775 1 4 137
1955083S11042 1955 23 SI MM NOT_NAMED 1955-03-27 03:00:00 TS -16.9560 42.7449 main 139 115 P________PP___ SH231955 -16.9575 42.7500 -1 -16.9575 42.7500 TC 25 -16.9531 42.7347 1 4 136
1955083S11042 1955 23 SI MM NOT_NAMED 1955-03-27 06:00:00 TS -17.1000 42.9000 main 115 101 O________OO___ jtwc_sh SH231955 -17.1000 42.9000 -1 -17.1000 42.9000 TC 25 -17.1000 42.9000 1 4 131
1955083S11042 1955 23 SI MM NOT_NAMED 1955-03-27 09:00:00 TS -17.2080 43.0470 main 101 77 P________PP___ SH231955 -17.2000 43.0426 -1 -17.2000 43.0426 TC 25 -17.2240 43.0558 1 4 126
1955083S11042 1955 23 SI MM NOT_NAMED 1955-03-27 12:00:00 TS -17.3141 43.2068 main 77 54 O________OP___ jtwc_sh SH231955 -17.3000 43.2000 -1 -17.3000 43.2000 TC 25 -17.3423 43.2203 1 4 127
1955083S11042 1955 23 SI MM NOT_NAMED 1955-03-27 15:00:00 TS -17.4498 43.3899 main 54 33 P________PP___ SH231955 -17.4425 43.3850 -1 -17.4425 43.3850 TC 25 -17.4646 43.3996 1 5 127
1955083S11042 1955 23 SI MM NOT_NAMED 1955-03-27 18:00:00 TS -17.6000 43.6000 main 33 21 O________OO___ jtwc_sh SH231955 -17.6000 43.6000 -1 -17.6000 43.6000 TC 25 -17.6000 43.6000 1 5 125
1955083S11042 1955 23 SI MM NOT_NAMED 1955-03-27 21:00:00 TS -17.7468 43.8369 main 21 0 P________PP___ SH231955 -17.7425 43.8426 -1 -17.7425 43.8426 TC 25 -17.7555 43.8256 1 6 124
1955083S11042 1955 23 SI MM NOT_NAMED 1955-03-28 00:00:00 TS -17.9093 44.0906 main 0 0 O________OP___ jtwc_sh SH231955 -17.9000 44.1000 -1 -17.9000 44.1000 TC 25 -17.9279 44.0719 1 6 126
1955083S11042 1955 23 SI MM NOT_NAMED 1955-03-28 03:00:00 TS -18.0971 44.3457 main 0 0 P________PP___ SH231955 -18.0900 44.3524 -1 -18.0900 44.3524 TC 25 -18.1113 44.3323 1 6 129
1955083S11042 1955 23 SI MM NOT_NAMED 1955-03-28 06:00:00 TS -18.3000 44.6000 main 0 O________OO___ jtwc_sh SH231955 -18.3000 44.6000 -1 -18.3000 44.6000 TC 25 -18.3000 44.6000 1 6 130

IBTrACS Databaseについて

本データベースは、米国NOAAが公開する1842年以降の世界の熱帯低気圧のベストトラックデータアーカイブInternational Best Track Archive for Climate Stewardship (IBTrACS)を、ウェブで閲覧しやすい形式に変換したものです。

最終更新日:2021-10-27